Galena Park, TX (77547)

4:11 AM CDT on September 25, 2016 (GMT -0500)
Galnea Park | | Change Station

Elev 36 ft 29.73 °N, 95.22 °W | Updated 26 seconds ago

Scattered Clouds
Scattered Clouds
81.5 °F
Feels Like 89 °F
N
2.0
Wind Variable Wind from NNE
Gusts 4.0 mph

Today
High -- | Low -- °F
--% Chance of Precip.
Yesterday
High -- | Low -- °F
Precip. -- in
Pressure 29.96 in
Visibility 10.0 miles
Clouds Few 2500 ft
Scattered Clouds 5500 ft
Scattered Clouds 25000 ft
Heat Index 89 °F
Dew Point 76 °F
Humidity 84%
Rainfall 0.00 in
Snow Depth Not available.
7:11 AM 7:13 PM
Waning Crescent, 29% visible
METAR KHOU 250853Z 11003KT 10SM FEW025 SCT055 SCT250 26/24 A2995 RMK AO2 SLP146 T02560239 58001
Pressure 29.96 in
Visibility 10.0 miles
Clouds Few 2500 ft
Scattered Clouds 5500 ft
Scattered Clouds 25000 ft
Heat Index 89 °F
Dew Point 76 °F
Humidity 84%
Rainfall 0.00 in
Snow Depth Not available.
7:11 AM 7:13 PM
Waning Crescent, 29% visible
METAR KHOU 250853Z 11003KT 10SM FEW025 SCT055 SCT250 26/24 A2995 RMK AO2 SLP146 T02560239 58001

10-Day Weather Forecast

Almanac

Astronomy

Sep. 25, 2016 Rise Set
Actual Time
Civil Twilight
Nautical Twilight
Astronomical Twilight
Moon
Length of Visible Light
Length of Day
Tomorrow will be .
, % of the Moon is Illuminated

Today's Extremes

State Highs State Lows

Community

WunderPhotos

Upload Photos

1,941,554 photos uploaded!

WunderBlog® & News

Nearby

Air Quality

  Air Quality AQ Index Pollutant
Not available.

Snow Depth

Station Depth Elevation

Earthquake Activity

City Distance Mag. Time & Date
Minimum magnitude displayed is 2.5.

Coastal Water Temperatures

Place Temperature

Stations

Nearby Weather Stations

Station Location Temp. Windchill Dew Point Humidity Wind Precip. Elev Updated Type
                   

Watches & Warnings

There are currently no watches in effect.